createdAt,value
2017-07-22T05:31:34.760Z,40
2017-07-22T05:32:00.165Z,40
2017-07-22T05:32:25.640Z,45
2017-07-22T05:32:51.097Z,45
2017-07-22T05:33:16.540Z,45
2017-07-22T05:33:42.036Z,45
2017-07-22T05:34:07.503Z,45
2017-07-22T05:34:32.963Z,45
2017-07-22T05:34:58.462Z,45
2017-07-22T05:35:23.903Z,40
2017-07-22T05:35:49.359Z,40
2017-07-22T05:36:14.817Z,40
2017-07-22T05:36:40.298Z,40
2017-07-22T05:37:05.737Z,40
2017-07-22T05:37:31.221Z,35
2017-07-22T05:37:56.678Z,35
2017-07-22T05:38:22.145Z,35
2017-07-22T05:38:47.643Z,35
2017-07-22T05:39:13.105Z,30
2017-07-22T05:39:38.568Z,30
2017-07-22T05:40:04.014Z,30
2017-07-22T05:40:29.493Z,30
2017-07-22T05:40:54.997Z,30
2017-07-22T05:41:20.488Z,30
2017-07-22T05:41:45.930Z,30
2017-07-22T05:42:11.443Z,30
2017-07-22T05:42:36.904Z,35
2017-07-22T05:43:02.372Z,35
2017-07-22T05:43:27.819Z,40
2017-07-22T05:43:53.334Z,40
2017-07-22T05:44:18.844Z,40
2017-07-22T05:44:44.318Z,45
2017-07-22T05:45:09.769Z,45
2017-07-22T05:45:35.208Z,50
2017-07-22T05:46:00.665Z,50
2017-07-22T05:46:26.118Z,55
2017-07-22T05:47:39.949Z,60
2017-07-22T05:48:05.374Z,60
2017-07-22T05:48:30.843Z,65
2017-07-22T05:48:56.310Z,65
2017-07-22T05:49:21.764Z,65
2017-07-22T05:49:47.224Z,65
2017-07-22T05:50:12.685Z,70
2017-07-22T05:50:38.169Z,70
2017-07-22T05:51:03.658Z,70
2017-07-22T05:51:29.093Z,70
2017-07-22T05:51:54.551Z,70
2017-07-22T05:52:20.025Z,75
2017-07-22T05:52:45.517Z,75
2017-07-22T05:53:10.981Z,75
2017-07-22T05:53:36.461Z,75
2017-07-22T05:54:01.927Z,75
2017-07-22T05:54:27.391Z,80
2017-07-22T05:54:52.895Z,80
2017-07-22T05:55:18.344Z,75
2017-07-22T05:55:43.824Z,75
2017-07-22T05:56:09.331Z,75
2017-07-22T05:56:34.797Z,75
2017-07-22T05:57:00.293Z,75
2017-07-22T05:57:25.776Z,75
2017-07-22T05:58:49.700Z,75
2017-07-22T05:59:15.162Z,75
2017-07-22T05:59:40.651Z,75
2017-07-22T06:00:06.116Z,70
2017-07-22T06:00:31.574Z,70
2017-07-22T06:00:57.040Z,65
2017-07-22T06:01:22.512Z,65
2017-07-22T06:01:47.994Z,60
2017-07-22T06:02:13.470Z,60
2017-07-22T06:02:38.896Z,55
2017-07-22T06:03:04.347Z,55
2017-07-22T06:03:29.827Z,50
2017-07-22T06:03:55.269Z,50
2017-07-22T06:04:20.760Z,45
2017-07-22T06:04:46.216Z,45
2017-07-22T06:05:11.708Z,40
2017-07-22T06:05:37.262Z,40
2017-07-22T06:06:02.718Z,40
2017-07-22T06:06:28.217Z,40
2017-07-22T06:06:53.648Z,35
2017-07-22T06:07:19.109Z,35
2017-07-22T06:07:44.573Z,35
2017-07-22T06:08:10.007Z,40
2017-07-22T06:08:35.519Z,40
2017-07-22T06:09:01.030Z,40
2017-07-22T06:09:26.526Z,45
2017-07-22T06:09:52.008Z,45
2017-07-22T06:10:17.423Z,45
2017-07-22T06:10:42.889Z,45
2017-07-22T06:11:08.358Z,45
2017-07-22T06:11:33.793Z,45
2017-07-22T06:11:59.265Z,40
2017-07-22T06:12:24.707Z,40
2017-07-22T06:12:50.188Z,40
2017-07-22T06:13:15.664Z,40
2017-07-22T06:13:41.111Z,40
2017-07-22T06:14:06.596Z,40
2017-07-22T06:14:32.052Z,40
2017-07-22T06:14:57.506Z,40
2017-07-22T06:15:22.948Z,45
2017-07-22T06:15:48.427Z,45
2017-07-22T06:16:13.900Z,45
2017-07-22T06:16:39.343Z,50
2017-07-22T06:17:04.836Z,50
2017-07-22T06:17:30.330Z,55
2017-07-22T06:17:55.791Z,55
2017-07-22T06:18:21.222Z,60
2017-07-22T06:18:46.674Z,60
2017-07-22T06:19:12.131Z,65
2017-07-22T06:19:37.576Z,65
2017-07-22T06:20:03.014Z,65
2017-07-22T06:20:28.474Z,70
2017-07-22T06:20:53.927Z,70
2017-07-22T06:21:19.357Z,70
2017-07-22T06:21:44.780Z,75
2017-07-22T06:22:10.244Z,75
2017-07-22T06:22:35.777Z,75
2017-07-22T06:23:01.229Z,75
2017-07-22T06:23:26.689Z,80
2017-07-22T06:24:55.727Z,80
2017-07-22T06:25:21.191Z,85
2017-07-22T06:25:46.682Z,85
2017-07-22T06:26:12.147Z,85
2017-07-22T06:26:37.607Z,85
2017-07-22T06:27:03.065Z,90
2017-07-22T06:27:28.513Z,90
2017-07-22T06:27:53.973Z,90
2017-07-22T06:28:19.452Z,95
2017-07-22T06:28:44.913Z,95
2017-07-22T06:29:10.364Z,100
2017-07-22T06:29:35.837Z,105
2017-07-22T06:30:01.293Z,105
2017-07-22T06:30:26.772Z,110
2017-07-22T06:30:52.232Z,110
2017-07-22T06:31:17.729Z,115
2017-07-22T06:31:43.216Z,115
2017-07-22T06:32:08.671Z,115
2017-07-22T06:32:34.205Z,115
2017-07-22T06:32:59.658Z,115
2017-07-22T06:33:25.134Z,120
2017-07-22T06:33:50.646Z,120
2017-07-22T06:34:16.101Z,120
2017-07-22T06:34:41.538Z,125
2017-07-22T06:35:07.029Z,130
2017-07-22T06:35:32.517Z,135
2017-07-22T06:35:57.969Z,155
2017-07-22T06:36:23.444Z,150
2017-07-22T06:36:48.918Z,150
2017-07-22T06:37:14.395Z,150
2017-07-22T06:37:39.890Z,150
2017-07-22T06:38:05.331Z,155
2017-07-22T06:38:30.829Z,150
2017-07-22T06:38:56.294Z,150
2017-07-22T06:39:21.788Z,145
2017-07-22T06:39:47.279Z,145
2017-07-22T06:40:12.727Z,140
2017-07-22T06:40:38.209Z,145
2017-07-22T06:41:03.678Z,140
2017-07-22T06:41:29.174Z,135
2017-07-22T06:41:54.667Z,145
2017-07-22T06:42:20.224Z,145
2017-07-22T06:42:45.672Z,155
2017-07-22T06:43:11.152Z,180
2017-07-22T06:43:36.596Z,170
2017-07-22T06:44:02.077Z,140
2017-07-22T06:44:27.472Z,160
2017-07-22T06:44:52.944Z,170
2017-07-22T06:45:18.421Z,175
2017-07-22T06:45:43.875Z,180
2017-07-22T06:46:09.379Z,180
2017-07-22T06:46:34.816Z,180
2017-07-22T06:47:00.282Z,185
2017-07-22T06:47:25.736Z,170
2017-07-22T06:47:51.216Z,165
2017-07-22T06:48:16.630Z,165
2017-07-22T06:48:42.103Z,140
2017-07-22T06:49:07.577Z,140
2017-07-22T06:49:33.088Z,135
2017-07-22T06:49:58.553Z,140
2017-07-22T06:50:24.056Z,155
2017-07-22T06:50:49.511Z,165
2017-07-22T06:51:14.980Z,140
2017-07-22T06:51:40.432Z,160
2017-07-22T06:52:05.883Z,155
2017-07-22T06:52:31.379Z,160
2017-07-22T06:52:56.834Z,160
2017-07-22T06:53:22.332Z,160
2017-07-22T06:53:47.820Z,160
2017-07-22T06:54:13.301Z,160
2017-07-22T06:54:38.792Z,160
2017-07-22T06:55:04.275Z,160
2017-07-22T06:55:29.719Z,160
2017-07-22T06:55:55.256Z,160
2017-07-22T06:56:20.701Z,160
2017-07-22T06:56:46.166Z,160
2017-07-22T06:57:11.705Z,160
2017-07-22T06:57:37.128Z,160
2017-07-22T06:58:02.595Z,155
2017-07-22T06:58:28.109Z,155
2017-07-22T06:58:53.626Z,155
2017-07-22T06:59:19.191Z,155
2017-07-22T06:59:44.640Z,155
2017-07-22T07:00:10.135Z,155
2017-07-22T07:00:35.568Z,155
2017-07-22T07:01:01.032Z,155
2017-07-22T07:01:26.494Z,155
2017-07-22T07:01:51.958Z,155
2017-07-22T07:02:17.422Z,155
2017-07-22T07:02:42.909Z,155
2017-07-22T07:03:08.416Z,155
2017-07-22T07:03:33.857Z,155
2017-07-22T07:03:59.430Z,155
2017-07-22T07:04:24.825Z,160
2017-07-22T07:04:51.193Z,160
2017-07-22T07:05:16.676Z,160
2017-07-22T07:05:42.102Z,160
2017-07-22T07:07:06.104Z,160
2017-07-22T07:07:31.527Z,160
2017-07-22T07:07:57.013Z,160
2017-07-22T07:08:22.541Z,160
2017-07-22T07:08:47.973Z,160
2017-07-22T07:09:13.428Z,160
2017-07-22T07:09:38.907Z,160
2017-07-22T07:10:04.378Z,160
2017-07-22T07:10:29.893Z,160
2017-07-22T07:10:55.372Z,160
2017-07-22T07:11:20.877Z,160
2017-07-22T07:11:46.343Z,165
2017-07-22T07:12:11.788Z,165
2017-07-22T07:12:37.252Z,165
2017-07-22T07:13:02.718Z,165
2017-07-22T07:13:28.188Z,170
2017-07-22T07:13:53.645Z,165
2017-07-22T07:14:19.257Z,165
2017-07-22T07:14:44.592Z,165
2017-07-22T07:15:10.089Z,165
2017-07-22T07:15:35.525Z,165
2017-07-22T07:16:00.972Z,165
2017-07-22T07:16:26.415Z,165
2017-07-22T07:16:51.931Z,160
2017-07-22T07:17:17.363Z,160
2017-07-22T07:17:42.825Z,160
2017-07-22T07:18:08.302Z,155
2017-07-22T07:18:33.723Z,155
2017-07-22T07:18:59.223Z,155
2017-07-22T07:19:24.703Z,160
2017-07-22T07:19:50.190Z,160
2017-07-22T07:20:15.666Z,160
2017-07-22T07:20:41.159Z,160
2017-07-22T07:21:06.619Z,160
2017-07-22T07:21:32.103Z,160
2017-07-22T07:21:57.588Z,155
2017-07-22T07:22:23.017Z,155
2017-07-22T07:22:48.488Z,155
2017-07-22T07:23:13.998Z,155
2017-07-22T07:23:39.472Z,155
2017-07-22T07:24:04.950Z,155
2017-07-22T07:24:30.431Z,155
2017-07-22T07:24:55.875Z,155
2017-07-22T07:26:24.927Z,155
2017-07-22T07:26:50.388Z,155
2017-07-22T07:27:15.859Z,155
2017-07-22T07:27:41.347Z,155
2017-07-22T07:28:06.786Z,155
2017-07-22T07:28:32.250Z,155
2017-07-22T07:28:57.750Z,155
2017-07-22T07:29:23.183Z,155
2017-07-22T07:29:48.756Z,155
2017-07-22T07:30:14.434Z,155
2017-07-22T07:30:39.885Z,155
2017-07-22T07:31:05.348Z,155
2017-07-22T07:31:31.064Z,155
2017-07-22T07:31:56.639Z,150
2017-07-22T07:32:22.066Z,160
2017-07-22T07:32:47.585Z,160
2017-07-22T07:34:11.576Z,160
2017-07-22T07:34:37.048Z,160
2017-07-22T07:35:02.528Z,160
2017-07-22T07:35:28.015Z,160
2017-07-22T07:35:53.542Z,165
2017-07-22T07:36:18.999Z,160
2017-07-22T07:36:44.467Z,160
2017-07-22T07:37:09.919Z,160
2017-07-22T07:37:35.382Z,160
2017-07-22T07:38:00.872Z,155
2017-07-22T07:38:26.355Z,155
2017-07-22T07:38:51.799Z,160
2017-07-22T07:39:17.291Z,160
2017-07-22T07:39:42.780Z,160
2017-07-22T07:40:08.283Z,160
2017-07-22T07:40:33.777Z,160
2017-07-22T07:40:59.235Z,160
2017-07-22T07:41:24.735Z,160
2017-07-22T07:41:50.223Z,160
2017-07-22T07:42:15.702Z,165
2017-07-22T07:42:41.193Z,165
2017-07-22T07:43:06.665Z,165
2017-07-22T07:43:32.184Z,165
2017-07-22T07:43:57.668Z,165
2017-07-22T07:44:23.169Z,165
2017-07-22T07:44:48.619Z,160
2017-07-22T07:45:14.112Z,160
2017-07-22T07:46:38.079Z,160
2017-07-22T07:47:03.535Z,160
2017-07-22T07:47:28.982Z,155
2017-07-22T07:47:54.445Z,155
2017-07-22T07:48:19.932Z,155
2017-07-22T07:48:45.401Z,155
2017-07-22T07:49:10.906Z,155
2017-07-22T07:49:36.372Z,155
2017-07-22T07:50:01.839Z,155
2017-07-22T07:50:27.326Z,155
2017-07-22T07:50:52.812Z,155
2017-07-22T07:51:18.289Z,155
2017-07-22T07:52:42.258Z,155
2017-07-22T07:53:07.725Z,155
2017-07-22T07:53:33.190Z,150
2017-07-22T07:53:58.675Z,150
2017-07-22T07:54:24.133Z,150
2017-07-22T07:54:49.594Z,150
2017-07-22T07:55:15.064Z,150
2017-07-22T07:55:40.514Z,150
2017-07-22T07:56:05.954Z,150
2017-07-22T07:56:31.433Z,150
2017-07-22T07:56:56.907Z,150
2017-07-22T07:57:22.404Z,150
2017-07-22T07:57:47.907Z,150
2017-07-22T07:58:13.398Z,150
2017-07-22T07:58:38.911Z,150
2017-07-22T07:59:04.403Z,150
2017-07-22T07:59:29.893Z,150
2017-07-22T07:59:55.376Z,150
2017-07-22T08:00:20.872Z,150
2017-07-22T08:00:46.358Z,150
2017-07-22T08:01:11.795Z,150
2017-07-22T08:01:37.272Z,150
2017-07-22T08:02:02.741Z,150
2017-07-22T08:02:28.229Z,150
2017-07-22T08:02:53.739Z,150
2017-07-22T08:03:19.222Z,150
2017-07-22T08:03:44.714Z,150
2017-07-22T08:04:10.169Z,150
2017-07-22T08:04:35.660Z,150
2017-07-22T08:05:01.169Z,150
2017-07-22T08:05:26.673Z,150
2017-07-22T08:05:52.128Z,150
2017-07-22T08:06:17.614Z,150
2017-07-22T08:06:43.127Z,150
2017-07-22T08:07:08.620Z,150
2017-07-22T08:07:34.094Z,150
2017-07-22T08:07:59.578Z,150
2017-07-22T08:08:25.055Z,150
2017-07-22T08:08:50.525Z,150
2017-07-22T08:09:15.991Z,150
2017-07-22T08:09:41.501Z,150
2017-07-22T08:10:07.007Z,150
2017-07-22T08:10:32.456Z,150
2017-07-22T08:10:57.938Z,150
2017-07-22T08:11:23.411Z,145
2017-07-22T08:11:48.860Z,145
2017-07-22T08:12:14.324Z,145
2017-07-22T08:12:39.805Z,145
2017-07-22T08:13:05.299Z,145
2017-07-22T08:13:30.740Z,145
2017-07-22T08:13:56.213Z,145
2017-07-22T08:14:21.674Z,145
2017-07-22T08:14:47.159Z,145
2017-07-22T08:15:12.637Z,145
2017-07-22T08:15:38.108Z,160
2017-07-22T08:16:03.595Z,165
2017-07-22T08:16:29.099Z,155
2017-07-22T08:16:54.592Z,150
2017-07-22T08:17:20.050Z,145
2017-07-22T08:17:45.529Z,145
2017-07-22T08:18:10.987Z,145
2017-07-22T08:18:36.464Z,145
2017-07-22T08:19:01.940Z,145
2017-07-22T08:19:27.418Z,145
2017-07-22T08:19:52.936Z,145
2017-07-22T08:20:18.401Z,150
2017-07-22T08:21:42.407Z,160
2017-07-22T08:22:07.905Z,160
2017-07-22T08:22:33.360Z,165
2017-07-22T08:22:58.820Z,190
2017-07-22T08:23:24.281Z,185
2017-07-22T08:23:49.733Z,175
2017-07-22T08:24:15.229Z,125
2017-07-22T08:24:40.678Z,120
2017-07-22T08:25:06.160Z,155
2017-07-22T08:25:31.610Z,155
2017-07-22T08:25:57.079Z,155
2017-07-22T08:26:22.580Z,150
2017-07-22T08:26:48.013Z,150
2017-07-22T08:27:13.478Z,150
2017-07-22T08:27:38.960Z,150
2017-07-22T08:28:04.398Z,150
2017-07-22T08:28:29.860Z,150
2017-07-22T08:28:55.358Z,130
2017-07-22T08:29:20.814Z,130
2017-07-22T08:29:46.293Z,160
2017-07-22T08:30:11.773Z,160
2017-07-22T08:30:37.241Z,160
2017-07-22T08:31:02.721Z,155
2017-07-22T08:31:28.186Z,155
2017-07-22T08:31:53.683Z,155
2017-07-22T08:32:19.125Z,155
2017-07-22T08:32:44.631Z,165
2017-07-22T08:33:10.131Z,165
2017-07-22T08:33:35.621Z,160
2017-07-22T08:34:01.146Z,160
2017-07-22T08:34:26.668Z,155
2017-07-22T08:34:52.162Z,155
2017-07-22T08:35:17.648Z,135
2017-07-22T08:35:43.125Z,145
2017-07-22T08:36:08.595Z,145
2017-07-22T08:36:34.089Z,145
2017-07-22T08:36:59.531Z,150
2017-07-22T08:37:25.018Z,150
2017-07-22T08:37:50.490Z,145
2017-07-22T08:38:16.004Z,150
2017-07-22T08:38:41.483Z,170
2017-07-22T08:39:06.912Z,165
2017-07-22T08:39:32.379Z,155
2017-07-22T08:39:57.863Z,155
2017-07-22T08:40:23.296Z,150
2017-07-22T08:40:48.781Z,150
2017-07-22T08:41:14.342Z,150
2017-07-22T08:41:39.808Z,155
2017-07-22T08:42:05.311Z,155
2017-07-22T08:42:30.776Z,150
2017-07-22T08:42:56.261Z,150
2017-07-22T08:43:21.776Z,150
2017-07-22T08:43:47.292Z,145
2017-07-22T08:44:12.790Z,145
2017-07-22T08:44:38.252Z,145
2017-07-22T08:45:03.700Z,145
2017-07-22T08:46:12.433Z,145
2017-07-22T08:46:37.906Z,145
2017-07-22T08:47:03.341Z,155
2017-07-22T08:47:28.793Z,160
2017-07-22T08:47:54.290Z,165
2017-07-22T08:48:19.764Z,165
2017-07-22T08:48:45.248Z,185
2017-07-22T08:49:10.740Z,190
2017-07-22T08:49:36.165Z,155
2017-07-22T08:50:01.642Z,180
2017-07-22T08:50:27.136Z,180
2017-07-22T08:50:52.579Z,170
2017-07-22T08:51:18.029Z,160
2017-07-22T08:51:43.510Z,165
2017-07-22T08:52:08.964Z,160
2017-07-22T08:52:34.408Z,165
2017-07-22T08:52:59.906Z,170
2017-07-22T08:53:25.389Z,180
2017-07-22T08:53:50.884Z,195
2017-07-22T08:54:16.321Z,190
2017-07-22T08:54:41.835Z,155
2017-07-22T08:55:07.312Z,150
2017-07-22T08:55:32.810Z,160
2017-07-22T08:55:58.318Z,150
2017-07-22T08:56:23.795Z,155
2017-07-22T08:56:49.255Z,155
2017-07-22T08:57:14.717Z,140
2017-07-22T08:57:40.199Z,140
2017-07-22T08:58:05.679Z,150
2017-07-22T08:58:31.174Z,180
2017-07-22T08:58:56.683Z,210
2017-07-22T08:59:22.201Z,215
2017-07-22T08:59:47.690Z,230
2017-07-22T09:00:13.166Z,240
2017-07-22T09:00:38.646Z,240
2017-07-22T09:01:04.123Z,245
2017-07-22T09:01:29.561Z,235
2017-07-22T09:01:55.035Z,225
2017-07-22T09:02:20.557Z,220
2017-07-22T09:02:46.079Z,210
2017-07-22T09:03:11.622Z,200
2017-07-22T09:03:37.030Z,190
2017-07-22T09:04:02.517Z,190
2017-07-22T09:05:26.532Z,170
2017-07-22T09:05:51.979Z,170
2017-07-22T09:06:17.449Z,160
2017-07-22T09:06:42.944Z,155
2017-07-22T09:07:08.421Z,150
2017-07-22T09:07:33.903Z,155
2017-07-22T09:07:59.408Z,120
2017-07-22T09:08:24.870Z,120
2017-07-22T09:08:50.327Z,140
2017-07-22T09:09:15.792Z,130
2017-07-22T09:09:41.264Z,155
2017-07-22T09:10:06.725Z,155
2017-07-22T09:10:32.247Z,160
2017-07-22T09:10:57.695Z,165
2017-07-22T09:11:23.151Z,165
2017-07-22T09:11:48.587Z,170
2017-07-22T09:12:14.088Z,170
2017-07-22T09:12:39.567Z,165
2017-07-22T09:13:05.068Z,135
2017-07-22T09:13:30.535Z,160
2017-07-22T09:13:56.029Z,160
2017-07-22T09:14:21.489Z,155
2017-07-22T09:14:46.967Z,165
2017-07-22T09:15:12.450Z,175
2017-07-22T09:15:37.935Z,180
2017-07-22T09:16:03.421Z,180
2017-07-22T09:16:28.946Z,180
2017-07-22T09:16:54.431Z,165
2017-07-22T09:17:19.949Z,185
2017-07-22T09:17:45.466Z,180
2017-07-22T09:18:10.940Z,180
2017-07-22T09:18:36.403Z,175
2017-07-22T09:19:01.908Z,170
2017-07-22T09:19:27.374Z,165
2017-07-22T09:19:52.833Z,165
2017-07-22T09:20:18.311Z,155
2017-07-22T09:20:43.795Z,155
2017-07-22T09:21:09.243Z,125
2017-07-22T09:21:34.726Z,125
2017-07-22T09:22:00.203Z,130
2017-07-22T09:22:25.706Z,125
2017-07-22T09:22:51.192Z,145
2017-07-22T09:23:16.679Z,150
2017-07-22T09:23:42.184Z,150
2017-07-22T09:24:07.674Z,150
2017-07-22T09:24:33.179Z,150
2017-07-22T09:24:58.610Z,150
2017-07-22T09:25:24.122Z,145
2017-07-22T09:25:49.586Z,145
2017-07-22T09:26:15.077Z,140
2017-07-22T09:26:40.577Z,145
2017-07-22T09:27:54.378Z,140
2017-07-22T09:28:19.843Z,140
2017-07-22T09:28:45.303Z,145
2017-07-22T09:29:10.789Z,140
2017-07-22T09:29:36.233Z,140
2017-07-22T09:30:01.717Z,140
2017-07-22T09:30:27.196Z,145
2017-07-22T09:30:52.659Z,150
2017-07-22T09:31:18.190Z,150
2017-07-22T09:31:43.711Z,170
2017-07-22T09:32:09.172Z,180
2017-07-22T09:32:34.641Z,195
2017-07-22T09:33:00.149Z,205
2017-07-22T09:33:25.662Z,205
2017-07-22T09:33:51.138Z,210
2017-07-22T09:34:16.618Z,220
2017-07-22T09:34:42.088Z,220
2017-07-22T09:35:07.563Z,210
2017-07-22T09:35:33.056Z,215
2017-07-22T09:35:58.534Z,220
2017-07-22T09:36:24.017Z,225
2017-07-22T09:36:49.531Z,265
2017-07-22T09:37:15.003Z,260
2017-07-22T09:37:40.468Z,255
2017-07-22T09:38:05.974Z,245
2017-07-22T09:38:31.442Z,235
2017-07-22T09:38:56.923Z,210
2017-07-22T09:39:22.389Z,195
2017-07-22T09:39:47.841Z,200
2017-07-22T09:40:13.319Z,190
2017-07-22T09:40:38.828Z,180
2017-07-22T09:41:04.299Z,155
2017-07-22T09:41:29.785Z,155
2017-07-22T09:41:55.280Z,170
2017-07-22T09:42:20.790Z,185
2017-07-22T09:42:46.260Z,185
2017-07-22T09:43:11.704Z,190
2017-07-22T09:43:37.233Z,190
2017-07-22T09:44:02.703Z,195
2017-07-22T09:44:28.215Z,195
2017-07-22T09:44:53.671Z,175
2017-07-22T09:45:19.169Z,190
2017-07-22T09:45:44.639Z,205
2017-07-22T09:46:10.112Z,205
2017-07-22T09:46:35.597Z,190
2017-07-22T09:47:01.090Z,205
2017-07-22T09:47:26.592Z,195
2017-07-22T09:47:52.063Z,215
2017-07-22T09:48:17.554Z,195
2017-07-22T09:48:43.002Z,195
2017-07-22T09:49:08.472Z,195
2017-07-22T09:49:33.957Z,180
2017-07-22T09:49:59.482Z,170
2017-07-22T09:50:24.945Z,165
2017-07-22T09:50:50.461Z,170
2017-07-22T09:51:15.988Z,165
2017-07-22T09:51:41.453Z,160
2017-07-22T09:52:06.950Z,155
2017-07-22T09:52:32.431Z,150
2017-07-22T09:52:57.854Z,140
2017-07-22T09:53:23.322Z,135
2017-07-22T09:53:48.791Z,135
2017-07-22T09:54:14.315Z,135
2017-07-22T09:54:39.748Z,130
2017-07-22T09:55:05.229Z,130
2017-07-22T09:55:30.723Z,130
2017-07-22T09:55:56.178Z,130
2017-07-22T09:56:21.636Z,115
2017-07-22T09:56:47.114Z,135
2017-07-22T09:57:12.563Z,155
2017-07-22T09:57:38.065Z,160
2017-07-22T09:58:03.518Z,165
2017-07-22T09:58:29.033Z,170
2017-07-22T09:58:54.517Z,185
2017-07-22T09:59:20.000Z,195
2017-07-22T09:59:45.491Z,200
2017-07-22T10:00:10.964Z,190
2017-07-22T10:00:36.431Z,185
2017-07-22T10:01:01.951Z,175
2017-07-22T10:01:27.459Z,170
2017-07-22T10:01:52.982Z,160
2017-07-22T10:02:18.464Z,160
2017-07-22T10:02:43.948Z,165
2017-07-22T10:03:09.407Z,175
2017-07-22T10:03:34.946Z,180
2017-07-22T10:04:00.407Z,185
2017-07-22T10:04:25.880Z,175
2017-07-22T10:04:51.324Z,160
2017-07-22T10:05:16.816Z,150
2017-07-22T10:05:42.314Z,140
2017-07-22T10:06:07.834Z,140
2017-07-22T10:06:33.269Z,135
2017-07-22T10:06:58.774Z,130
2017-07-22T10:07:24.221Z,130
2017-07-22T10:07:49.699Z,125
2017-07-22T10:08:15.191Z,125
2017-07-22T10:08:40.654Z,125
2017-07-22T10:09:06.144Z,125
2017-07-22T10:09:31.581Z,125
2017-07-22T10:09:57.078Z,125
2017-07-22T10:10:22.544Z,125
2017-07-22T10:10:48.078Z,125
2017-07-22T10:11:13.530Z,125
2017-07-22T10:11:39.017Z,125
2017-07-22T10:12:04.468Z,130
2017-07-22T10:12:29.906Z,130
2017-07-22T10:12:55.363Z,130
2017-07-22T10:13:20.838Z,130
2017-07-22T10:13:46.323Z,130
2017-07-22T10:14:11.815Z,130
2017-07-22T10:14:37.274Z,130
2017-07-22T10:15:02.786Z,130
2017-07-22T10:15:28.250Z,130
2017-07-22T10:15:53.718Z,130
2017-07-22T10:16:19.209Z,130
2017-07-22T10:16:44.797Z,130
2017-07-22T10:17:10.332Z,130
2017-07-22T10:17:35.853Z,130
2017-07-22T10:18:01.305Z,130
2017-07-22T10:18:26.803Z,135
2017-07-22T10:18:52.275Z,135
2017-07-22T10:19:17.785Z,110
2017-07-22T10:19:43.287Z,130
2017-07-22T10:20:08.786Z,130
2017-07-22T10:20:34.264Z,135
2017-07-22T10:20:59.738Z,135
2017-07-22T10:21:25.221Z,135
2017-07-22T10:21:50.744Z,135
2017-07-22T10:22:16.190Z,135
2017-07-22T10:22:41.653Z,135
2017-07-22T10:23:07.132Z,115
2017-07-22T10:23:32.652Z,110
2017-07-22T10:23:58.117Z,130
2017-07-22T10:24:23.610Z,120
2017-07-22T10:24:49.098Z,130
2017-07-22T10:25:14.539Z,130
2017-07-22T10:25:40.054Z,145
2017-07-22T10:26:05.545Z,140
2017-07-22T10:26:31.072Z,140
2017-07-22T10:26:56.542Z,145
2017-07-22T10:27:22.015Z,160
2017-07-22T10:27:47.542Z,170
2017-07-22T10:28:13.033Z,180
2017-07-22T10:28:38.531Z,195
2017-07-22T10:30:02.556Z,220
2017-07-22T10:30:28.067Z,225
2017-07-22T10:30:53.575Z,220
2017-07-22T10:31:19.098Z,210
2017-07-22T10:31:44.601Z,205
2017-07-22T10:32:10.082Z,190
2017-07-22T10:32:35.568Z,180
2017-07-22T10:33:00.991Z,170
2017-07-22T10:33:26.458Z,165
2017-07-22T10:33:51.955Z,160
2017-07-22T10:34:17.411Z,160
2017-07-22T10:34:42.901Z,165
2017-07-22T10:35:08.380Z,170
2017-07-22T10:35:33.837Z,170
2017-07-22T10:35:59.322Z,165
2017-07-22T10:36:24.776Z,155
2017-07-22T10:36:50.272Z,145
2017-07-22T10:37:15.748Z,145
2017-07-22T10:38:34.662Z,135
2017-07-22T10:39:00.127Z,130
2017-07-22T10:39:25.638Z,130
2017-07-22T10:39:51.145Z,130
2017-07-22T10:40:16.607Z,130
2017-07-22T10:40:42.091Z,130
2017-07-22T10:41:07.587Z,130
2017-07-22T10:41:33.073Z,135
2017-07-22T10:41:58.606Z,130
2017-07-22T10:42:24.071Z,130
2017-07-22T10:42:49.536Z,130
2017-07-22T10:43:15.000Z,135
2017-07-22T10:43:40.450Z,140
2017-07-22T10:44:05.916Z,150
2017-07-22T10:44:31.408Z,150
2017-07-22T10:44:56.896Z,155
2017-07-22T10:46:20.885Z,155
2017-07-22T10:46:46.346Z,150
2017-07-22T10:47:11.826Z,150
2017-07-22T10:47:37.313Z,145
2017-07-22T10:48:02.798Z,130
2017-07-22T10:48:28.270Z,140
2017-07-22T10:49:52.269Z,130
2017-07-22T10:50:17.746Z,135
2017-07-22T10:50:43.196Z,130
2017-07-22T10:51:08.655Z,125
2017-07-22T10:51:34.129Z,125
2017-07-22T10:51:59.616Z,140
2017-07-22T10:52:25.096Z,135
2017-07-22T10:52:50.581Z,125
2017-07-22T10:53:16.076Z,140
2017-07-22T10:53:41.555Z,150
2017-07-22T10:54:07.041Z,165
2017-07-22T10:54:32.501Z,180
2017-07-22T10:54:57.958Z,210
2017-07-22T10:55:23.468Z,210
2017-07-22T10:55:48.929Z,200
2017-07-22T10:56:14.428Z,205
2017-07-22T10:56:39.890Z,200
2017-07-22T10:57:05.344Z,195
2017-07-22T10:57:30.808Z,185
2017-07-22T10:57:56.287Z,185
2017-07-22T10:58:21.798Z,175
2017-07-22T10:58:47.309Z,180
2017-07-22T10:59:12.766Z,185
2017-07-22T10:59:38.289Z,195
2017-07-22T11:00:03.711Z,210
2017-07-22T11:00:29.211Z,215
2017-07-22T11:00:54.666Z,210
2017-07-22T11:01:20.143Z,215
2017-07-22T11:01:45.663Z,210
2017-07-22T11:02:11.168Z,215
2017-07-22T11:02:36.642Z,220
2017-07-22T11:03:02.148Z,220
2017-07-22T11:03:27.606Z,215
2017-07-22T11:03:53.098Z,210
2017-07-22T11:04:18.561Z,205
2017-07-22T11:04:44.061Z,185
2017-07-22T11:05:09.579Z,170
2017-07-22T11:05:35.073Z,160
2017-07-22T11:06:00.611Z,155
2017-07-22T11:06:26.129Z,150
2017-07-22T11:06:51.582Z,145
2017-07-22T11:07:17.061Z,145
2017-07-22T11:07:42.526Z,145
2017-07-22T11:08:08.002Z,145
2017-07-22T11:08:33.515Z,145
2017-07-22T11:08:58.958Z,145
2017-07-22T11:09:24.418Z,145
2017-07-22T11:09:49.893Z,145
2017-07-22T11:10:15.367Z,145
2017-07-22T11:10:40.861Z,145
2017-07-22T11:11:06.328Z,140
2017-07-22T11:11:31.792Z,140
2017-07-22T11:11:57.273Z,140
2017-07-22T11:12:22.753Z,140
2017-07-22T11:12:48.280Z,135
2017-07-22T11:13:13.761Z,135
2017-07-22T11:13:39.214Z,135
2017-07-22T11:14:04.679Z,135
2017-07-22T11:14:30.216Z,135
2017-07-22T11:14:55.665Z,125
2017-07-22T11:15:21.167Z,120
2017-07-22T11:15:46.674Z,120
2017-07-22T11:16:12.152Z,120
2017-07-22T11:16:37.640Z,120
2017-07-22T11:17:03.114Z,120
2017-07-22T11:17:28.625Z,115
2017-07-22T11:17:54.197Z,115
2017-07-22T11:18:19.652Z,120
2017-07-22T11:18:45.153Z,125
2017-07-22T11:19:10.614Z,125
2017-07-22T11:19:36.123Z,130
2017-07-22T11:20:01.626Z,135
2017-07-22T11:20:27.089Z,140
2017-07-22T11:20:52.581Z,135
2017-07-22T11:21:18.135Z,140
2017-07-22T11:21:43.627Z,140
2017-07-22T11:22:09.107Z,140
2017-07-22T11:22:34.609Z,135
2017-07-22T11:23:00.112Z,140
2017-07-22T11:23:25.581Z,140
2017-07-22T11:23:51.054Z,145
2017-07-22T11:24:16.493Z,150
2017-07-22T11:24:42.012Z,155
2017-07-22T11:25:07.510Z,160
2017-07-22T11:25:33.016Z,160
2017-07-22T11:25:58.533Z,165
2017-07-22T11:26:24.036Z,165
2017-07-22T11:26:49.500Z,170
2017-07-22T11:27:15.007Z,170
2017-07-22T11:27:40.480Z,170
2017-07-22T11:28:05.972Z,170
2017-07-22T11:28:31.472Z,170
2017-07-22T11:28:56.931Z,165
2017-07-22T11:29:22.413Z,165
2017-07-22T11:29:47.903Z,165
2017-07-22T11:30:13.331Z,165
2017-07-22T11:30:38.856Z,160
2017-07-22T11:31:04.344Z,160
2017-07-22T11:31:29.787Z,155
2017-07-22T11:31:55.255Z,155
2017-07-22T11:32:20.752Z,155
2017-07-22T11:32:46.228Z,155
2017-07-22T11:33:11.747Z,155
2017-07-22T11:33:37.211Z,150
2017-07-22T11:34:02.713Z,150
2017-07-22T11:34:28.161Z,145
2017-07-22T11:34:53.636Z,155
2017-07-22T11:35:19.137Z,150
2017-07-22T11:35:44.587Z,140
2017-07-22T11:36:10.084Z,135
2017-07-22T11:36:35.586Z,140
2017-07-22T11:37:01.086Z,135
2017-07-22T11:37:26.563Z,130
2017-07-22T11:37:52.089Z,125
2017-07-22T11:38:17.569Z,120
2017-07-22T11:38:43.056Z,120
2017-07-22T11:39:08.520Z,125